Time;durP1;ratioP1;P1;durP2;ratioP2;P2;SDS_P1;SDS_P2;PMS_P1;PMS_P2;Temp;Humidity;BMP_temperature;BMP_pressure;BME280_temperature;BME280_humidity;BME280_pressure;Samples;Min_cycle;Max_cycle;Signal;HPM_P1;HPM_P2
2024/04/13 00:00:11;;;;;;;35.38;11.30;;;12.10;99.90;;;10.92;99.77;101981.56;5322828;26;20466;-82
2024/04/13 00:02:41;;;;;;;31.33;10.98;;;12.00;99.90;;;10.88;100.00;101983.41;5256809;26;20446;-83
2024/04/13 00:05:07;;;;;;;34.45;12.05;;;12.00;99.90;;;10.85;100.00;101979.09;5298023;26;20055;-82
2024/04/13 00:07:36;;;;;;;35.72;11.88;;;12.00;99.90;;;10.84;100.00;101981.75;5287657;26;20091;-83
2024/04/13 00:10:04;;;;;;;46.22;11.30;;;11.90;99.90;;;10.82;100.00;101988.84;5256674;26;20000;-82
2024/04/13 00:12:30;;;;;;;40.13;12.70;;;11.90;99.90;;;10.79;100.00;101992.44;5237253;26;20379;-83
2024/04/13 00:14:56;;;;;;;40.15;12.60;;;11.90;99.90;;;10.76;100.00;101994.31;5232315;26;19994;-83
2024/04/13 00:17:23;;;;;;;38.33;12.90;;;11.90;99.90;;;10.74;100.00;101985.59;5349505;26;20085;-83
2024/04/13 00:19:57;;;;;;;44.45;11.32;;;11.90;99.90;;;10.72;100.00;101982.97;5322380;26;20004;-82
2024/04/13 00:22:23;;;;;;;37.47;11.75;;;11.80;99.90;;;10.69;100.00;101980.44;5317651;26;20012;-83
2024/04/13 00:24:48;;;;;;;36.28;12.00;;;11.80;99.90;;;10.68;100.00;101982.19;5258700;26;20007;-82
2024/04/13 00:27:14;;;;;;;45.00;12.38;;;11.80;99.90;;;10.67;100.00;101977.84;5269137;26;20012;-82
2024/04/13 00:29:49;;;;;;;32.25;11.77;;;;;;;10.66;100.00;101978.72;5306690;26;20016;-82
2024/04/13 00:32:17;;;;;;;40.83;11.85;;;11.70;99.90;;;10.64;100.00;101971.78;5297880;26;20009;-82
2024/04/13 00:34:43;;;;;;;30.00;10.90;;;11.80;99.90;;;10.61;100.00;101971.88;5263795;26;20008;-82
2024/04/13 00:37:16;;;;;;;35.50;10.77;;;11.70;99.90;;;10.59;100.00;101971.91;5284507;26;20016;-82
2024/04/13 00:39:42;;;;;;;31.85;10.90;;;11.70;99.90;;;10.58;100.00;101964.03;5281606;26;20077;-82
2024/04/13 00:42:08;;;;;;;37.10;11.93;;;11.70;99.90;;;10.55;100.00;101975.53;5312383;26;20027;-83
2024/04/13 00:44:33;;;;;;;39.65;11.55;;;11.70;99.90;;;10.54;100.00;101963.28;5272318;26;20012;-82
2024/04/13 00:47:05;;;;;;;34.28;11.05;;;11.70;99.90;;;10.52;100.00;101964.19;5301821;26;20013;-83
2024/04/13 00:49:38;;;;;;;30.48;10.60;;;11.70;99.90;;;10.52;100.00;101956.31;5258060;26;20007;-83
2024/04/13 00:52:11;;;;;;;33.92;10.00;;;11.60;99.90;;;10.48;100.00;101954.69;5282223;26;20020;-82
2024/04/13 00:54:39;;;;;;;33.42;10.43;;;11.60;99.90;;;10.46;100.00;101959.97;5252872;26;20024;-82
2024/04/13 00:57:08;;;;;;;38.63;9.82;;;11.60;99.90;;;10.46;100.00;101954.72;5329487;26;20004;-83
2024/04/13 00:59:37;;;;;;;33.40;9.93;;;11.60;99.90;;;10.45;100.00;101948.59;5245618;26;21684;-82
2024/04/13 01:02:08;;;;;;;39.00;11.20;;;11.60;99.90;;;10.43;100.00;101954.78;5242632;26;19996;-82
2024/04/13 01:04:36;;;;;;;43.92;10.60;;;11.60;99.90;;;10.41;100.00;101949.56;5270497;26;20002;-82
2024/04/13 01:07:05;;;;;;;34.92;10.45;;;11.50;99.90;;;10.39;100.00;101951.38;5274611;26;20026;-83
2024/04/13 01:09:31;;;;;;;31.95;10.80;;;11.50;99.90;;;10.39;100.00;101948.75;5234580;26;20066;-83
2024/04/13 01:11:58;;;;;;;34.33;10.50;;;11.50;99.90;;;10.37;100.00;101954.97;5282521;26;20004;-82
2024/04/13 01:14:24;;;;;;;40.25;11.10;;;11.50;99.90;;;10.38;100.00;101962.78;5360228;26;20023;-82
2024/04/13 01:16:50;;;;;;;36.45;9.93;;;11.50;99.90;;;10.40;100.00;101955.72;5270298;26;20365;-82
2024/04/13 01:19:23;;;;;;;39.63;11.10;;;11.50;99.90;;;10.38;100.00;101948.78;5311178;26;19997;-82
2024/04/13 01:21:49;;;;;;;44.10;11.18;;;11.50;99.90;;;10.37;100.00;101958.44;5327436;26;20017;-82
2024/04/13 01:24:16;;;;;;;38.60;10.32;;;11.50;99.90;;;10.34;100.00;101955.03;5310670;26;20463;-82
2024/04/13 01:26:46;;;;;;;33.28;9.63;;;11.50;99.90;;;10.32;100.00;101941.03;5301353;26;20020;-82
2024/04/13 01:29:14;;;;;;;32.55;9.57;;;11.40;99.90;;;10.32;100.00;101941.88;5270129;26;20013;-82
2024/04/13 01:31:40;;;;;;;37.38;10.20;;;11.40;99.90;;;10.31;100.00;101945.44;5292614;26;20009;-82
2024/04/13 01:34:06;;;;;;;34.78;10.15;;;11.40;99.90;;;10.28;100.00;101948.13;5317592;26;19991;-82
2024/04/13 01:36:43;;;;;;;33.65;9.75;;;11.40;99.90;;;10.26;100.00;101948.16;5280068;26;20005;-82
2024/04/13 01:39:12;;;;;;;40.08;10.68;;;11.40;99.90;;;10.22;100.00;101948.28;5317206;26;20148;-83
2024/04/13 01:41:46;;;;;;;39.05;10.20;;;11.40;99.90;;;10.20;100.00;101947.47;5308943;26;20004;-82
2024/04/13 01:44:12;;;;;;;40.25;9.95;;;;;;;10.19;100.00;101948.34;5293310;26;20012;-82
2024/04/13 01:46:38;;;;;;;43.90;9.85;;;11.30;99.90;;;10.15;100.00;101954.59;5336737;26;21421;-82
2024/04/13 01:49:05;;;;;;;33.90;10.30;;;11.20;99.90;;;10.07;100.00;101942.50;5261183;26;20025;-82
2024/04/13 01:51:41;;;;;;;35.53;9.60;;;11.20;99.90;;;10.07;100.00;101939.88;5258341;26;20005;-83
2024/04/13 01:54:07;;;;;;;48.25;11.57;;;11.10;99.90;;;10.01;100.00;101926.00;5266484;26;20012;-84
2024/04/13 01:56:33;;;;;;;30.70;10.38;;;11.20;99.90;;;9.97;100.00;101929.59;5272934;26;20012;-82
2024/04/13 01:59:00;;;;;;;32.42;10.02;;;11.20;99.90;;;9.92;100.00;101924.47;5290967;26;20012;-82
2024/04/13 02:01:29;;;;;;;38.85;9.80;;;11.10;99.90;;;9.86;100.00;101933.34;5275369;26;20469;-82
2024/04/13 02:03:55;;;;;;;42.88;10.30;;;11.00;99.90;;;9.84;100.00;101942.19;5311363;26;20019;-82
2024/04/13 02:06:21;;;;;;;33.03;10.45;;;11.00;99.90;;;9.78;100.00;101922.19;5281778;26;20005;-84
2024/04/13 02:08:49;;;;;;;39.47;10.32;;;10.90;99.90;;;9.72;100.00;101919.69;5267178;26;20008;-83
2024/04/13 02:11:16;;;;;;;35.88;10.30;;;10.90;99.90;;;9.62;100.00;101895.38;5278548;26;20042;-82
2024/04/13 02:13:45;;;;;;;36.25;10.77;;;10.80;99.90;;;9.55;100.00;101890.31;5287401;26;19997;-82
2024/04/13 02:16:11;;;;;;;40.38;10.48;;;10.70;99.90;;;9.50;100.00;101898.28;5298278;26;20106;-83
2024/04/13 02:18:37;;;;;;;42.72;10.95;;;10.70;99.90;;;9.44;100.00;101904.56;5268374;26;20047;-82
2024/04/13 02:21:05;;;;;;;39.35;11.32;;;10.70;99.90;;;9.43;100.00;101901.97;5273127;26;20330;-82
2024/04/13 02:23:31;;;;;;;46.63;11.20;;;10.60;99.90;;;9.40;100.00;101907.31;5318212;26;20014;-82
2024/04/13 02:26:07;;;;;;;37.15;10.40;;;10.60;99.90;;;9.37;100.00;101912.59;5271582;26;20001;-82
2024/04/13 02:28:33;;;;;;;39.95;13.43;;;10.50;99.90;;;9.37;100.00;101907.34;5322513;26;20441;-82
2024/04/13 02:31:08;;;;;;;45.03;11.02;;;10.60;99.90;;;9.39;100.00;101911.66;5285018;26;20023;-84
2024/04/13 02:33:33;;;;;;;35.38;11.43;;;10.60;99.90;;;9.37;100.00;101915.25;5322889;26;20000;-82
2024/04/13 02:36:02;;;;;;;39.47;11.02;;;10.60;99.90;;;9.33;100.00;101922.34;5312283;26;20005;-82
2024/04/13 02:38:35;;;;;;;44.13;11.05;;;10.50;99.90;;;9.29;100.00;101915.44;5223888;26;20003;-83
2024/04/13 02:41:03;;;;;;;38.33;10.77;;;10.40;99.90;;;9.24;100.00;101917.28;5230607;26;20019;-82
2024/04/13 02:43:31;;;;;;;45.70;11.95;;;10.40;99.90;;;9.21;100.00;101918.22;5305571;26;20111;-83
2024/04/13 02:46:07;;;;;;;45.33;11.05;;;10.40;99.90;;;9.16;100.00;101914.84;5326530;26;20038;-82
2024/04/13 02:48:43;;;;;;;38.13;10.57;;;10.40;99.90;;;9.13;100.00;101909.63;5243676;26;20070;-82
2024/04/13 02:51:10;;;;;;;51.20;11.80;;;10.30;99.90;;;9.12;100.00;101914.94;5293093;26;20011;-83
2024/04/13 02:53:37;;;;;;;43.50;11.55;;;10.30;99.90;;;9.10;100.00;101914.97;5269026;26;20001;-83
2024/04/13 02:56:04;;;;;;;38.03;11.55;;;10.30;99.90;;;9.05;100.00;101911.56;5281227;26;20015;-83
2024/04/13 02:58:33;;;;;;;36.25;11.45;;;10.20;99.90;;;9.01;100.00;101916.03;5289434;26;20011;-83
2024/04/13 03:01:02;;;;;;;43.53;11.15;;;10.20;99.90;;;8.97;100.00;101919.59;5353105;26;20077;-82
2024/04/13 03:03:28;;;;;;;51.40;11.15;;;10.20;99.90;;;8.92;100.00;101917.97;5291029;26;20000;-84
2024/04/13 03:06:04;;;;;;;39.65;11.18;;;10.10;99.90;;;8.90;100.00;101923.28;5276539;26;20012;-82
2024/04/13 03:08:31;;;;;;;42.40;11.70;;;10.10;99.90;;;8.89;100.00;101920.66;5328893;26;20096;-83
2024/04/13 03:11:02;;;;;;;37.30;11.77;;;10.10;99.90;;;8.88;100.00;101925.06;5258826;26;20008;-84
2024/04/13 03:13:31;;;;;;;42.28;11.25;;;10.10;99.90;;;8.91;100.00;101924.13;5309931;26;19997;-82
2024/04/13 03:16:10;;;;;;;42.13;11.40;;;10.10;99.90;;;8.92;100.00;101913.59;5288080;26;20006;-82
2024/04/13 03:18:46;;;;;;;35.47;10.88;;;10.10;99.90;;;8.91;100.00;101911.00;5262630;26;20010;-82
2024/04/13 03:21:15;;;;;;;37.00;10.82;;;10.10;99.90;;;8.92;100.00;101912.72;5249113;26;20375;-82
2024/04/13 03:23:42;;;;;;;39.05;10.52;;;10.10;99.90;;;8.91;100.00;101903.13;5279064;26;20005;-84
2024/04/13 03:26:08;;;;;;;43.67;11.10;;;10.10;99.90;;;8.93;100.00;101910.06;5331505;26;20033;-82
2024/04/13 03:28:35;;;;;;;40.22;10.75;;;10.10;99.90;;;8.93;100.00;101893.44;5261532;26;20048;-82
2024/04/13 03:31:09;;;;;;;50.58;11.70;;;10.10;99.90;;;8.94;100.00;101895.16;5272934;26;20000;-84
2024/04/13 03:33:35;;;;;;;53.85;12.90;;;10.10;99.90;;;8.91;100.00;101882.09;5337522;26;20080;-82
2024/04/13 03:36:14;;;;;;;73.97;21.48;;;10.10;99.90;;;8.92;100.00;101879.44;5309089;26;20454;-82
2024/04/13 03:38:40;;;;;;;105.15;32.65;;;10.10;99.90;;;8.90;100.00;101878.63;5274467;26;20454;-82
2024/04/13 03:41:07;;;;;;;80.88;23.23;;;10.10;99.90;;;8.90;100.00;101883.88;5333169;26;20016;-82
2024/04/13 03:43:39;;;;;;;49.67;19.13;;;9.20;99.90;;;8.90;100.00;101878.63;5277761;26;20685;-83
2024/04/13 03:46:05;;;;;;;52.17;16.42;;;10.10;99.90;;;8.91;100.00;101887.34;5296160;26;20088;-82
2024/04/13 03:48:31;;;;;;;38.70;14.00;;;10.10;99.90;;;8.91;100.00;101877.69;5245742;26;20053;-83
2024/04/13 03:51:09;;;;;;;54.85;13.75;;;10.10;99.90;;;8.93;100.00;101891.66;5315668;26;20463;-83
2024/04/13 03:53:36;;;;;;;51.47;14.13;;;10.10;99.90;;;8.91;100.00;101888.22;5317415;26;20004;-82
2024/04/13 03:56:01;;;;;;;42.65;11.82;;;10.10;99.90;;;8.89;100.00;101887.38;5313124;26;20016;-82
2024/04/13 03:58:37;;;;;;;41.95;11.25;;;10.10;99.90;;;8.88;100.00;101890.91;5315788;26;20009;-82
2024/04/13 04:01:03;;;;;;;51.93;11.53;;;10.00;99.90;;;8.82;100.00;101883.16;5350815;26;20004;-83
2024/04/13 04:03:29;;;;;;;38.13;11.98;;;10.00;99.90;;;8.80;100.00;101888.44;5295309;26;20221;-83
2024/04/13 04:05:54;;;;;;;38.70;12.55;;;10.00;99.90;;;8.79;100.00;101883.19;5288998;26;20381;-82
2024/04/13 04:08:28;;;;;;;35.53;11.55;;;10.00;99.90;;;8.79;100.00;101883.19;5326222;26;20004;-82
2024/04/13 04:10:53;;;;;;;38.38;10.85;;;10.00;99.90;;;8.76;100.00;101878.88;5271842;26;20008;-83
2024/04/13 04:13:22;;;;;;;32.42;10.57;;;9.90;99.90;;;8.74;100.00;101891.19;5334059;26;20052;-83
2024/04/13 04:15:53;;;;;;;41.83;11.27;;;9.90;99.90;;;8.71;100.00;101891.25;5242856;26;20022;-83
2024/04/13 04:18:21;;;;;;;44.25;12.43;;;9.90;99.90;;;8.67;100.00;101891.34;5286651;26;20011;-83
2024/04/13 04:20:48;;;;;;;36.97;11.05;;;9.90;99.90;;;8.67;100.00;101889.59;5291546;26;20004;-82
2024/04/13 04:23:14;;;;;;;40.42;12.10;;;9.80;99.90;;;8.64;100.00;101889.66;5247805;26;20057;-86
2024/04/13 04:25:45;;;;;;;38.75;11.88;;;9.80;99.90;;;8.61;100.00;101884.44;5300074;26;20354;-84
2024/04/13 04:28:11;;;;;;;43.10;11.73;;;9.80;99.90;;;8.60;100.00;101882.75;5324297;26;20013;-82
2024/04/13 04:30:37;;;;;;;37.22;11.38;;;9.80;99.90;;;8.59;100.00;101884.47;5283719;26;20008;-82
2024/04/13 04:33:04;;;;;;;43.60;11.88;;;9.80;99.90;;;8.60;100.00;101878.34;5291240;26;20012;-83
2024/04/13 04:35:30;;;;;;;42.28;14.40;;;9.80;99.90;;;8.62;100.00;101879.19;5310115;26;20016;-83
2024/04/13 04:38:03;;;;;;;50.97;14.45;;;9.80;99.90;;;8.63;100.00;101880.88;5326032;26;20039;-82
2024/04/13 04:40:29;;;;;;;48.05;15.10;;;9.80;99.90;;;8.63;100.00;101883.53;5208673;26;20017;-83
2024/04/13 04:42:55;;;;;;;45.92;14.27;;;9.80;99.90;;;8.65;100.00;101891.38;5257620;26;20072;-82
2024/04/13 04:45:21;;;;;;;51.65;14.05;;;9.90;99.90;;;8.66;100.00;101894.84;5288631;26;20014;-82
2024/04/13 04:47:49;;;;;;;46.17;14.18;;;;;;;8.68;100.00;101893.06;5273837;26;20009;-82
2024/04/13 04:50:18;;;;;;;53.25;14.50;;;9.90;99.90;;;8.71;100.00;101895.66;5314445;26;20409;-82
2024/04/13 04:52:44;;;;;;;48.33;13.68;;;9.90;99.90;;;8.74;100.00;101895.56;5285879;26;20016;-83
2024/04/13 04:55:10;;;;;;;39.53;13.85;;;9.90;99.90;;;8.78;100.00;101897.25;5318087;26;20393;-83
2024/04/13 04:57:35;;;;;;;49.25;14.23;;;10.00;99.90;;;8.79;100.00;101891.97;5282001;26;20072;-82
2024/04/13 05:00:02;;;;;;;54.38;13.52;;;;;;;8.83;100.00;101895.38;5270190;26;20372;-83
2024/04/13 05:02:34;;;;;;;47.03;13.30;;;10.00;99.90;;;8.88;100.00;101895.31;5275337;26;20452;-82
2024/04/13 05:05:00;;;;;;;53.30;13.13;;;10.10;99.90;;;8.91;100.00;101893.47;5338189;26;20110;-83
2024/04/13 05:07:25;;;;;;;53.38;13.05;;;10.10;99.90;;;8.95;100.00;101897.75;5312678;26;20503;-82
2024/04/13 05:09:51;;;;;;;47.30;13.02;;;10.10;99.90;;;8.96;100.00;101891.63;5274543;26;20015;-82
2024/04/13 05:12:17;;;;;;;49.53;13.30;;;10.20;99.90;;;8.98;100.00;101881.06;5264314;26;20000;-82
2024/04/13 05:14:43;;;;;;;44.40;13.05;;;10.20;99.90;;;9.04;100.00;101878.31;5372813;26;20008;-83
2024/04/13 05:17:17;;;;;;;51.40;13.60;;;10.20;99.90;;;9.11;100.00;101885.16;5251510;26;20006;-83
2024/04/13 05:19:43;;;;;;;43.88;13.30;;;10.30;99.90;;;9.16;100.00;101883.31;5280537;26;20041;-82
2024/04/13 05:22:09;;;;;;;54.47;13.23;;;10.40;99.90;;;9.23;100.00;101878.78;5305401;26;20000;-83
2024/04/13 05:24:37;;;;;;;45.05;13.63;;;10.40;99.90;;;9.31;100.00;101881.19;5275203;26;20000;-82
2024/04/13 05:27:06;;;;;;;40.70;13.68;;;10.50;99.90;;;9.34;100.00;101879.38;5316625;26;20584;-83
2024/04/13 05:29:34;;;;;;;65.72;13.45;;;10.50;99.90;;;9.40;100.00;101881.00;5240244;26;20052;-83
2024/04/13 05:32:00;;;;;;;45.17;13.90;;;10.50;99.90;;;9.43;100.00;101880.94;5284962;26;20014;-82
2024/04/13 05:34:26;;;;;;;48.88;13.68;;;10.60;99.90;;;9.44;100.00;101878.28;5291273;26;20009;-82
2024/04/13 05:36:59;;;;;;;48.35;14.43;;;10.60;99.90;;;9.50;100.00;101885.13;5298437;26;20016;-83
2024/04/13 05:39:28;;;;;;;45.53;14.52;;;10.70;99.90;;;9.59;100.00;101877.03;5296204;26;20031;-83
2024/04/13 05:41:54;;;;;;;52.72;14.57;;;10.80;99.90;;;9.77;100.00;101877.50;5286390;26;20661;-82
2024/04/13 05:44:41;;;;;;;42.35;14.10;;;10.90;99.90;;;9.90;100.00;101876.28;5301277;26;20052;-83
2024/04/13 05:47:07;;;;;;;46.63;14.00;;;11.00;99.90;;;9.99;100.00;101881.31;5255613;26;20147;-82
2024/04/13 05:49:33;;;;;;;51.78;15.38;;;11.10;99.90;;;10.09;100.00;101883.72;5278767;26;20000;-83
2024/04/13 05:51:59;;;;;;;44.47;15.02;;;11.20;99.90;;;10.18;100.00;101883.47;5288163;26;20114;-83
2024/04/13 05:54:25;;;;;;;49.30;14.95;;;11.20;99.90;;;10.22;100.00;101879.84;5289081;26;20004;-83
2024/04/13 05:56:58;;;;;;;50.15;14.50;;;;;;;10.29;100.00;101884.06;5299572;26;20468;-83
2024/04/13 05:59:23;;;;;;;56.10;14.75;;;11.40;99.90;;;10.39;100.00;101879.44;5269537;26;20018;-84
2024/04/13 06:01:52;;;;;;;51.10;15.25;;;;;;;10.53;100.00;101874.63;5322145;26;20064;-83
2024/04/13 06:04:18;;;;;;;52.22;15.63;;;11.60;99.90;;;10.68;100.00;101889.13;5301407;26;20369;-83
2024/04/13 06:06:50;;;;;;;51.80;15.10;;;11.80;99.90;;;10.76;100.00;101881.88;5308300;26;19997;-84
2024/04/13 06:09:16;;;;;;;45.22;14.02;;;11.90;99.90;;;10.87;100.00;101874.53;5229508;26;20548;-83
2024/04/13 06:11:42;;;;;;;50.10;13.43;;;12.00;99.90;;;10.95;100.00;101876.06;5312623;26;20015;-84
2024/04/13 06:14:08;;;;;;;40.55;14.10;;;12.10;99.90;;;11.02;100.00;101869.72;5289100;26;20001;-83
2024/04/13 06:16:35;;;;;;;43.65;14.98;;;;;;;11.14;100.00;101876.38;5298627;26;19999;-83
2024/04/13 06:19:13;;;;;;;42.72;13.90;;;12.20;99.90;;;11.21;100.00;101868.25;5280506;26;20023;-83
2024/04/13 06:21:47;;;;;;;44.03;14.25;;;12.30;99.90;;;11.27;100.00;101862.78;5259468;26;20032;-83
2024/04/13 06:24:13;;;;;;;52.55;15.18;;;12.40;99.90;;;11.38;100.00;101864.19;5257219;26;20023;-83
2024/04/13 06:26:39;;;;;;;49.22;14.05;;;12.50;99.90;;;11.49;100.00;101875.28;5281095;26;20004;-83
2024/04/13 06:29:05;;;;;;;42.20;14.10;;;12.60;99.90;;;11.55;100.00;101866.28;5278215;26;20026;-83
2024/04/13 06:31:31;;;;;;;44.33;14.23;;;12.60;99.90;;;11.60;100.00;101869.66;5295146;26;20003;-84
2024/04/13 06:34:08;;;;;;;39.13;13.40;;;12.70;99.90;;;11.64;100.00;101869.50;5271320;26;20478;-83
2024/04/13 06:36:34;;;;;;;42.67;14.18;;;12.70;99.90;;;11.79;100.00;101872.53;5277374;26;20073;-84
2024/04/13 06:39:07;;;;;;;50.00;14.73;;;12.80;99.90;;;11.88;100.00;101870.50;5304740;26;20496;-83
2024/04/13 06:41:33;;;;;;;33.28;12.82;;;13.00;99.90;;;12.00;100.00;101874.47;5306959;26;20004;-83
2024/04/13 06:44:03;;;;;;;33.17;13.35;;;13.00;99.90;;;12.09;100.00;101871.56;5313478;26;20008;-85
2024/04/13 06:46:34;;;;;;;37.20;13.35;;;13.20;99.90;;;12.20;100.00;101862.38;5306718;26;20118;-83
2024/04/13 06:49:04;;;;;;;37.42;13.63;;;13.20;99.90;;;12.25;100.00;101853.38;5228272;26;20016;-83
2024/04/13 06:51:39;;;;;;;39.45;13.60;;;13.30;99.90;;;12.38;100.00;101850.31;5256470;26;20008;-84
2024/04/13 06:54:05;;;;;;;38.95;13.73;;;13.40;99.90;;;12.50;100.00;101836.63;5284953;26;20097;-83
2024/04/13 06:56:34;;;;;;;31.73;12.27;;;13.60;99.90;;;12.59;100.00;101846.88;5304686;26;20001;-83
2024/04/13 06:59:08;;;;;;;39.05;12.82;;;13.60;99.90;;;12.73;100.00;101854.28;5305935;26;20093;-83
2024/04/13 07:01:34;;;;;;;39.35;12.80;;;13.80;99.90;;;12.82;100.00;101858.34;5265528;26;20009;-82
2024/04/13 07:04:00;;;;;;;42.97;12.70;;;13.80;99.90;;;12.93;100.00;101870.22;5287225;26;20064;-83
2024/04/13 07:06:26;;;;;;;39.90;12.52;;;14.00;99.90;;;13.06;100.00;101880.34;5299252;26;20004;-83
2024/04/13 07:09:00;;;;;;;24.20;11.02;;;14.10;99.90;;;13.18;100.00;101864.00;5256948;26;20399;-84
2024/04/13 07:11:27;;;;;;;32.25;11.55;;;14.20;99.90;;;13.38;100.00;101870.31;5302762;26;20043;-83
2024/04/13 07:13:53;;;;;;;37.35;11.07;;;14.40;99.90;;;13.62;100.00;101874.59;5258336;26;20064;-85
2024/04/13 07:16:19;;;;;;;24.73;10.60;;;14.60;99.90;;;13.83;98.10;101869.34;5228880;26;20009;-83
2024/04/13 07:18:52;;;;;;;22.90;9.82;;;14.80;99.90;;;14.00;95.30;101861.56;5308298;26;20009;-83
2024/04/13 07:21:18;;;;;;;26.70;9.68;;;;;;;14.22;94.08;101864.13;5303852;26;20442;-82
2024/04/13 07:23:44;;;;;;;28.60;10.23;;;;;;;14.36;91.93;101860.84;5306917;26;20344;-82
2024/04/13 07:26:10;;;;;;;24.35;8.60;;;;;;;14.47;90.80;101858.63;5300053;26;20467;-83
2024/04/13 07:28:45;;;;;;;19.83;9.18;;;15.40;99.90;;;14.56;89.73;101852.94;5330200;26;20011;-84
2024/04/13 07:31:11;;;;;;;20.98;8.95;;;15.60;99.90;;;14.77;89.54;101858.16;5279399;26;20023;-83
2024/04/13 07:33:37;;;;;;;21.65;8.55;;;15.70;99.90;;;14.97;89.39;101858.09;5304653;26;20021;-82
2024/04/13 07:36:03;;;;;;;23.60;8.40;;;16.00;99.90;;;15.19;88.37;101857.09;5291363;26;20023;-82
2024/04/13 07:38:37;;;;;;;29.23;9.30;;;16.10;99.90;;;15.37;87.46;101856.19;5271455;26;20023;-83
2024/04/13 07:41:03;;;;;;;22.70;8.18;;;16.40;99.90;;;15.58;86.19;101859.56;5260591;26;20023;-83
2024/04/13 07:43:30;;;;;;;22.02;9.07;;;;;;;15.74;84.47;101861.50;5317589;26;20011;-85
2024/04/13 07:46:06;;;;;;;21.45;8.45;;;16.60;99.90;;;15.86;84.01;101862.69;5305177;26;20078;-85
2024/04/13 07:48:32;;;;;;;22.70;8.43;;;16.90;99.90;;;16.08;84.27;101873.91;5256881;26;20004;-84
2024/04/13 07:50:58;;;;;;;22.25;8.23;;;17.00;99.90;;;16.25;82.76;101872.19;5335124;26;20033;-87
2024/04/13 07:53:30;;;;;;;28.58;9.10;;;17.10;99.90;;;16.34;81.70;101877.03;5217267;26;20005;-81
2024/04/13 07:55:57;;;;;;;21.45;7.32;;;17.30;99.90;;;16.44;80.95;101888.91;5303470;26;20000;-82
2024/04/13 07:58:23;;;;;;;18.05;7.53;;;17.40;99.90;;;16.52;79.79;101892.00;5310934;26;20015;-82
2024/04/13 08:00:49;;;;;;;21.83;7.88;;;17.50;99.90;;;16.66;79.39;101887.75;5321964;26;20016;-82
2024/04/13 08:03:16;;;;;;;17.77;7.43;;;17.60;99.90;;;16.80;79.87;101882.56;5250325;26;20030;-82
2024/04/13 08:05:47;;;;;;;19.40;7.90;;;17.80;99.90;;;17.01;80.07;101885.84;5293514;26;20083;-82
2024/04/13 08:08:13;;;;;;;17.88;6.93;;;18.00;99.90;;;17.19;78.57;101878.63;5294893;26;19996;-83
2024/04/13 08:10:42;;;;;;;16.52;6.65;;;18.10;99.90;;;17.39;78.01;101880.19;5285378;26;20007;-82
2024/04/13 08:13:16;;;;;;;13.23;6.40;;;;;;;17.56;76.77;101887.22;5294776;26;20039;-82
2024/04/13 08:15:42;;;;;;;19.80;6.25;;;18.40;99.90;;;17.60;75.40;101889.63;5297047;26;20001;-82
2024/04/13 08:18:08;;;;;;;17.85;6.70;;;18.50;99.90;;;17.63;75.49;101894.75;5285532;26;20015;-80
2024/04/13 08:20:35;;;;;;;17.33;6.30;;;18.50;99.90;;;17.63;74.99;101884.09;5318561;26;20337;-80
2024/04/13 08:23:09;;;;;;;15.43;6.50;;;18.50;99.90;;;17.64;75.08;101884.94;5303126;26;20005;-80
2024/04/13 08:25:35;;;;;;;18.05;6.25;;;18.60;99.90;;;17.71;75.54;101882.78;5257565;26;20000;-80
2024/04/13 08:28:01;;;;;;;15.05;6.25;;;18.60;99.90;;;17.80;75.37;101884.94;5289199;26;20090;-82
2024/04/13 08:30:26;;;;;;;18.13;7.03;;;18.80;99.90;;;17.96;75.31;101882.25;5367394;26;20459;-80
2024/04/13 08:32:55;;;;;;;18.27;6.47;;;18.90;99.90;;;18.12;75.18;101882.19;5308190;26;20037;-81
2024/04/13 08:35:21;;;;;;;13.13;5.78;;;18.90;99.90;;;18.02;74.29;101884.56;5288855;26;20015;-81
2024/04/13 08:37:46;;;;;;;12.00;5.50;;;19.00;99.90;;;18.10;73.44;101882.28;5345370;26;20477;-81
2024/04/13 08:40:12;;;;;;;17.30;7.38;;;19.00;99.90;;;18.19;73.59;101887.06;5261538;26;20001;-81
2024/04/13 08:42:43;;;;;;;20.05;6.50;;;19.10;99.90;;;18.22;73.02;101880.69;5247070;26;20080;-80
2024/04/13 08:45:18;;;;;;;19.90;6.18;;;19.20;99.90;;;18.39;73.40;101882.31;5238920;26;20051;-81
2024/04/13 08:47:47;;;;;;;15.20;6.07;;;19.20;99.90;;;18.36;71.80;101894.03;5270771;26;20059;-86
2024/04/13 08:51:23;;;;;;;16.80;6.00;;;19.40;99.90;;;18.54;73.50;101885.84;5165934;26;20013;-86
2024/04/13 08:53:53;;;;;;;14.95;5.63;;;;;;;18.63;72.57;101896.78;5279102;21;20030;-86
2024/04/13 08:56:44;;;;;;;15.25;5.25;;;19.60;99.90;;;18.75;71.66;101902.34;5247541;26;20053;-86
2024/04/13 08:59:26;;;;;;;10.10;4.40;;;19.70;99.90;;;18.68;70.78;101898.31;5234583;26;20017;-85
2024/04/13 09:15:25;;;;;;;18.08;5.78;;;19.30;99.90;;;18.40;71.32;101881.34;5204006;27;20062;-86
2024/04/13 09:18:23;;;;;;;12.85;4.70;;;;;;;18.57;72.46;101894.50;5140150;27;20022;-86
2024/04/13 09:21:15;;;;;;;43.67;12.95;;;19.60;99.90;;;18.78;72.00;101887.03;5227492;27;20005;-86
2024/04/13 09:26:25;;;;;;;14.40;4.90;;;19.90;99.90;;;19.10;71.31;101891.28;5235526;26;20001;-85
2024/04/13 09:29:06;;;;;;;12.10;5.05;;;20.00;99.90;;;19.20;70.27;101897.72;5138621;26;20009;-87
2024/04/13 09:31:46;;;;;;;14.65;5.43;;;20.10;99.90;;;19.20;69.70;101889.72;5129324;27;20005;-85
2024/04/13 09:34:19;;;;;;;14.43;4.70;;;;;;;19.24;68.89;101896.56;5082647;27;20004;-86
2024/04/13 09:36:56;;;;;;;13.30;4.47;;;;;;;19.24;68.52;101884.09;5149965;27;20008;-86
2024/04/13 09:39:25;;;;;;;14.25;5.18;;;;;;;19.32;68.68;101886.25;5114376;27;20011;-87
2024/04/13 09:41:55;;;;;;;12.90;4.93;;;;;;;19.43;68.56;101893.56;5226262;27;20010;-86
2024/04/13 09:44:46;;;;;;;11.00;4.63;;;20.40;99.90;;;19.56;68.98;101888.28;5183619;26;20096;-86
2024/04/13 09:47:31;;;;;;;14.23;4.97;;;20.60;99.90;;;19.71;68.53;101889.94;5035278;27;20078;-86
2024/04/13 09:50:27;;;;;;;13.82;4.78;;;20.70;99.90;;;19.96;68.58;101893.66;5106244;27;20079;-86
2024/04/13 09:53:04;;;;;;;12.40;4.60;;;;;;;20.03;67.76;101898.47;4989363;27;20537;-86
2024/04/13 09:55:37;;;;;;;16.15;4.60;;;;;;;19.95;67.59;101899.97;5038978;27;20016;-88
2024/04/13 09:58:08;;;;;;;10.57;4.80;;;20.90;99.90;;;19.94;66.63;101906.28;5028680;27;20076;-86
2024/04/13 10:00:46;;;;;;;8.50;4.13;;;20.80;99.90;;;19.69;67.73;101897.19;5074067;27;20013;-86
2024/04/13 10:03:13;;;;;;;8.73;4.70;;;;;;;19.45;67.59;101887.16;5146776;22;20418;-85
2024/04/13 10:05:46;;;;;;;11.40;4.82;;;20.60;99.90;;;19.56;68.36;101882.94;5208461;27;20006;-85
2024/04/13 10:08:15;;;;;;;11.25;4.72;;;20.60;99.90;;;19.68;68.12;101872.28;5201902;27;20022;-87
2024/04/13 10:11:09;;;;;;;10.98;4.32;;;20.70;99.90;;;19.74;67.82;101876.41;5176698;27;20021;-87
2024/04/13 10:13:47;;;;;;;11.02;4.55;;;20.70;99.90;;;19.71;67.59;101873.06;5219758;27;20271;-85
2024/04/13 10:16:26;;;;;;;;;;;;;;;;;;;;;
2024/04/13 10:18:53;;;;;;;10.43;4.15;;;;;;;19.90;67.77;101875.38;5220552;27;22220;-86
2024/04/13 10:21:34;;;;;;;11.40;4.20;;;20.90;99.90;;;19.98;68.32;101876.56;5177571;27;20497;-90
2024/04/13 10:24:00;;;;;;;13.73;4.07;;;20.90;99.90;;;19.94;67.57;101879.53;5175737;27;20018;-86
2024/04/13 10:26:34;;;;;;;13.27;5.60;;;20.80;99.90;;;19.82;67.66;101879.41;5170052;27;20013;-84
2024/04/13 10:29:01;;;;;;;9.48;4.07;;;20.70;99.90;;;19.65;66.79;101859.16;5224779;27;20100;-89
2024/04/13 10:34:33;;;;;;;8.15;3.38;;;20.30;99.90;;;19.18;68.32;101856.91;5060656;27;20013;-85
2024/04/13 10:37:37;;;;;;;13.43;3.95;;;20.20;99.90;;;19.04;69.43;101861.34;5066225;27;20063;-86